createdAt,value
2017-09-13T00:02:21.959Z,2.63
2017-09-13T00:04:49.436Z,2.97
2017-09-13T00:07:16.907Z,3.33
2017-09-13T00:09:44.376Z,3.30
2017-09-13T00:12:12.651Z,3.50
2017-09-13T00:14:40.196Z,3.97
2017-09-13T00:17:07.654Z,2.97
2017-09-13T00:19:35.118Z,3.17
2017-09-13T00:22:03.360Z,3.20
2017-09-13T00:24:30.822Z,2.80
2017-09-13T00:26:58.279Z,2.87
2017-09-13T00:29:25.854Z,3.47
2017-09-13T00:31:54.295Z,3.10
2017-09-13T00:34:21.754Z,3.20
2017-09-13T00:36:49.219Z,3.77
2017-09-13T00:39:16.703Z,3.37
2017-09-13T00:41:45.098Z,3.23
2017-09-13T00:44:13.363Z,3.07
2017-09-13T00:46:40.815Z,3.73
2017-09-13T00:49:09.040Z,2.83
2017-09-13T00:51:36.579Z,3.83
2017-09-13T00:54:04.044Z,4.50
2017-09-13T00:56:31.560Z,4.43
2017-09-13T00:58:59.044Z,3.50
2017-09-13T01:01:27.276Z,4.33
2017-09-13T01:03:54.751Z,4.60
2017-09-13T01:06:23.739Z,3.77
2017-09-13T01:08:51.196Z,3.67
2017-09-13T01:11:18.658Z,4.20
2017-09-13T01:13:46.127Z,3.77
2017-09-13T01:16:14.383Z,4.33
2017-09-13T01:18:41.943Z,4.97
2017-09-13T01:21:09.410Z,3.90
2017-09-13T01:23:36.866Z,3.80
2017-09-13T01:26:04.419Z,4.40
2017-09-13T01:28:31.893Z,4.63
2017-09-13T01:31:00.110Z,4.63
2017-09-13T01:33:27.606Z,3.97
2017-09-13T01:35:55.070Z,4.47
2017-09-13T01:38:23.339Z,5.03
2017-09-13T01:40:50.799Z,5.10
2017-09-13T01:43:18.357Z,4.87
2017-09-13T01:45:45.829Z,4.70
2017-09-13T01:48:14.171Z,4.47
2017-09-13T01:50:41.639Z,5.10
2017-09-13T01:53:09.099Z,5.73
2017-09-13T01:55:36.559Z,5.10
2017-09-13T01:58:04.031Z,5.30
2017-09-13T02:00:32.251Z,5.23
2017-09-13T02:03:00.400Z,5.60
2017-09-13T02:05:27.874Z,6.37
2017-09-13T02:07:55.376Z,5.50
2017-09-13T02:10:22.930Z,4.77
2017-09-13T02:12:50.392Z,5.10
2017-09-13T02:15:18.015Z,5.40
2017-09-13T02:17:45.467Z,5.53
2017-09-13T02:20:12.948Z,6.47
2017-09-13T02:22:40.416Z,5.73
2017-09-13T02:25:07.862Z,5.33
2017-09-13T02:27:35.335Z,4.63
2017-09-13T02:30:02.893Z,4.70
2017-09-13T02:32:30.356Z,5.20
2017-09-13T02:34:57.825Z,5.33
2017-09-13T02:37:26.079Z,5.17
2017-09-13T02:39:53.540Z,5.03
2017-09-13T02:42:20.999Z,5.43
2017-09-13T02:44:49.967Z,4.70
2017-09-13T02:47:17.467Z,5.17
2017-09-13T02:49:45.698Z,4.80
2017-09-13T02:52:13.159Z,5.40
2017-09-13T02:54:40.617Z,4.50
2017-09-13T02:57:08.078Z,6.03
2017-09-13T02:59:35.550Z,4.57
2017-09-13T03:02:03.016Z,4.60
2017-09-13T03:04:31.260Z,4.20
2017-09-13T03:06:58.720Z,3.80
2017-09-13T03:09:26.183Z,3.77
2017-09-13T03:11:53.665Z,4.60
2017-09-13T03:14:21.893Z,3.20
2017-09-13T03:16:49.379Z,3.50
2017-09-13T03:19:16.856Z,3.67
2017-09-13T03:21:45.116Z,3.27
2017-09-13T03:24:12.676Z,3.13
2017-09-13T03:26:40.226Z,4.40
2017-09-13T03:29:07.683Z,4.50
2017-09-13T03:31:35.144Z,4.60
2017-09-13T03:34:02.700Z,3.77
2017-09-13T03:36:30.154Z,3.37
2017-09-13T03:38:57.615Z,3.80
2017-09-13T03:41:25.083Z,3.83
2017-09-13T03:43:53.347Z,3.00
2017-09-13T03:46:20.808Z,2.70
2017-09-13T03:48:49.043Z,3.17
2017-09-13T03:51:16.498Z,2.83
2017-09-13T03:53:43.992Z,2.90
2017-09-13T03:56:11.568Z,3.40
2017-09-13T03:58:39.815Z,2.83
2017-09-13T04:01:07.292Z,3.90
2017-09-13T04:03:34.759Z,3.27
2017-09-13T04:06:02.999Z,4.20
2017-09-13T04:08:31.259Z,2.97
2017-09-13T04:10:58.747Z,3.20
2017-09-13T04:13:27.004Z,3.37
2017-09-13T04:15:54.481Z,3.10
2017-09-13T04:18:22.035Z,4.13
2017-09-13T04:20:49.496Z,3.33
2017-09-13T04:23:17.876Z,2.80
2017-09-13T04:25:45.347Z,3.70
2017-09-13T04:28:13.575Z,4.27
2017-09-13T04:30:41.039Z,4.80
2017-09-13T04:33:08.620Z,4.00
2017-09-13T04:35:36.186Z,3.80
2017-09-13T04:38:03.642Z,5.13
2017-09-13T04:40:31.120Z,3.63
2017-09-13T04:42:59.351Z,3.50
2017-09-13T04:45:26.807Z,4.23
2017-09-13T04:47:55.050Z,4.17
2017-09-13T04:50:22.509Z,3.60
2017-09-13T04:52:50.002Z,4.30
2017-09-13T04:55:17.480Z,3.50
2017-09-13T04:57:45.727Z,3.73
2017-09-13T05:00:13.184Z,4.20
2017-09-13T05:02:40.652Z,3.90
2017-09-13T05:05:08.114Z,4.10
2017-09-13T05:07:35.602Z,3.93
2017-09-13T05:10:03.835Z,3.37
2017-09-13T05:12:31.306Z,3.80
2017-09-13T05:14:58.771Z,4.50
2017-09-13T05:17:27.020Z,4.70
2017-09-13T05:19:54.492Z,5.10
2017-09-13T05:22:21.969Z,5.83
2017-09-13T05:24:50.210Z,4.50
2017-09-13T05:27:17.675Z,6.27
2017-09-13T05:29:45.232Z,7.20
2017-09-13T05:32:12.708Z,7.00
2017-09-13T05:34:40.936Z,7.63
2017-09-13T05:37:08.434Z,7.17
2017-09-13T05:39:35.903Z,7.47
2017-09-13T05:42:04.154Z,8.60
2017-09-13T05:44:31.608Z,8.33
2017-09-13T05:46:59.082Z,9.17
2017-09-13T05:49:26.540Z,8.50
2017-09-13T05:51:54.803Z,8.50
2017-09-13T05:54:22.291Z,7.70
2017-09-13T05:56:50.511Z,7.77
2017-09-13T05:59:17.983Z,7.30
2017-09-13T06:01:45.756Z,7.10
2017-09-13T06:04:13.315Z,6.90
2017-09-13T06:06:40.780Z,9.30
2017-09-13T06:09:08.253Z,8.00
2017-09-13T06:11:36.480Z,8.90
2017-09-13T06:14:03.955Z,8.20
2017-09-13T06:16:31.520Z,7.40
2017-09-13T06:18:58.974Z,6.90
2017-09-13T06:21:27.219Z,4.40
2017-09-13T06:23:54.696Z,3.83
2017-09-13T06:26:22.163Z,4.40
2017-09-13T06:28:49.624Z,3.13
2017-09-13T06:31:17.087Z,3.67
2017-09-13T06:33:45.310Z,3.00
2017-09-13T06:36:13.784Z,3.63
2017-09-13T06:38:41.250Z,2.50
2017-09-13T06:41:08.712Z,2.43
2017-09-13T06:43:36.715Z,2.60
2017-09-13T06:46:05.292Z,3.70
2017-09-13T06:48:33.747Z,3.57
2017-09-13T06:51:01.211Z,2.90
2017-09-13T06:53:28.842Z,4.57
2017-09-13T06:55:56.356Z,4.60
2017-09-13T06:58:23.911Z,2.83
2017-09-13T07:00:51.459Z,3.90
2017-09-13T07:03:18.916Z,3.27
2017-09-13T07:05:46.381Z,2.93
2017-09-13T07:08:14.150Z,2.93
2017-09-13T07:10:41.612Z,3.03
2017-09-13T07:13:09.884Z,3.83
2017-09-13T07:15:38.884Z,3.80
2017-09-13T07:18:07.111Z,2.83
2017-09-13T07:20:34.589Z,2.80
2017-09-13T07:23:02.056Z,3.20
2017-09-13T07:25:29.508Z,2.40
2017-09-13T07:27:56.972Z,2.00
2017-09-13T07:30:24.444Z,2.83
2017-09-13T07:32:52.676Z,2.50
2017-09-13T07:35:20.152Z,2.63
2017-09-13T07:37:47.618Z,2.80
2017-09-13T07:40:15.212Z,1.97
2017-09-13T07:42:42.950Z,3.27
2017-09-13T07:45:11.200Z,2.60
2017-09-13T07:47:38.771Z,2.83
2017-09-13T07:50:06.323Z,2.47
2017-09-13T07:52:33.784Z,1.90
2017-09-13T07:55:01.247Z,3.00
2017-09-13T07:57:29.012Z,2.30
2017-09-13T07:59:56.471Z,2.30
2017-09-13T08:02:24.014Z,2.10
2017-09-13T08:04:51.708Z,2.70
2017-09-13T08:07:19.941Z,3.40
2017-09-13T08:09:47.404Z,3.67
2017-09-13T08:12:14.904Z,2.03
2017-09-13T08:14:42.384Z,2.70
2017-09-13T08:17:09.849Z,3.27
2017-09-13T08:19:37.343Z,2.43
2017-09-13T08:22:05.248Z,2.37
2017-09-13T08:24:32.717Z,2.63
2017-09-13T08:27:00.198Z,3.00
2017-09-13T08:29:27.682Z,1.90
2017-09-13T08:31:55.239Z,2.13
2017-09-13T08:34:22.941Z,2.10
2017-09-13T08:36:50.399Z,2.03
2017-09-13T08:39:17.874Z,2.40
2017-09-13T08:41:45.338Z,1.87
2017-09-13T08:44:12.840Z,2.50
2017-09-13T08:46:40.384Z,2.07
2017-09-13T08:49:07.881Z,3.93
2017-09-13T08:51:35.351Z,2.90
2017-09-13T08:54:02.868Z,3.57
2017-09-13T08:56:31.115Z,2.87
2017-09-13T08:58:58.572Z,2.33
2017-09-13T09:01:26.112Z,2.80
2017-09-13T09:03:53.918Z,1.90
2017-09-13T09:06:21.374Z,2.40
2017-09-13T09:08:48.827Z,1.70
2017-09-13T09:11:16.557Z,1.40
2017-09-13T09:13:44.012Z,1.77
2017-09-13T09:16:12.300Z,1.17
2017-09-13T09:18:40.091Z,1.47
2017-09-13T09:21:07.544Z,2.70
2017-09-13T09:23:35.007Z,1.47
2017-09-13T09:26:03.272Z,2.97
2017-09-13T09:28:30.727Z,1.60
2017-09-13T09:30:58.212Z,2.10
2017-09-13T09:33:26.774Z,2.63
2017-09-13T09:35:54.329Z,1.70
2017-09-13T09:38:21.787Z,3.37
2017-09-13T09:40:49.343Z,1.87
2017-09-13T09:43:17.699Z,1.80
2017-09-13T09:45:45.176Z,1.50
2017-09-13T09:48:12.655Z,1.43
2017-09-13T09:50:40.884Z,1.77
2017-09-13T09:53:08.355Z,1.67
2017-09-13T09:55:35.818Z,1.63
2017-09-13T09:58:03.283Z,1.20
2017-09-13T10:00:30.760Z,1.10
2017-09-13T10:02:59.112Z,2.13
2017-09-13T10:05:26.575Z,2.37
2017-09-13T10:07:54.065Z,2.00
2017-09-13T10:10:21.534Z,1.33
2017-09-13T10:12:49.040Z,1.40
2017-09-13T10:15:16.530Z,1.90
2017-09-13T10:17:44.768Z,1.00
2017-09-13T10:20:12.227Z,1.80
2017-09-13T10:22:39.684Z,1.70
2017-09-13T10:25:07.146Z,2.20
2017-09-13T10:27:34.603Z,1.60
2017-09-13T10:30:02.059Z,2.20
2017-09-13T10:32:29.650Z,1.57
2017-09-13T10:34:57.871Z,2.17
2017-09-13T10:37:25.331Z,1.50
2017-09-13T10:39:52.832Z,1.60
2017-09-13T10:42:21.078Z,1.40
2017-09-13T10:44:48.544Z,1.87
2017-09-13T10:47:16.032Z,1.13
2017-09-13T10:49:43.482Z,1.50
2017-09-13T10:52:10.934Z,1.50
2017-09-13T10:54:38.408Z,1.70
2017-09-13T10:57:05.923Z,1.13
2017-09-13T10:59:33.795Z,1.77
2017-09-13T11:02:01.260Z,1.70
2017-09-13T11:04:29.487Z,1.70
2017-09-13T11:06:56.967Z,1.50
2017-09-13T11:09:24.435Z,3.13
2017-09-13T11:11:51.982Z,2.40
2017-09-13T11:14:19.448Z,1.83
2017-09-13T11:16:46.916Z,1.77
2017-09-13T11:19:15.149Z,1.10
2017-09-13T11:21:42.611Z,1.60
2017-09-13T11:24:10.083Z,1.73
2017-09-13T11:26:37.551Z,2.13
2017-09-13T11:29:05.022Z,1.30
2017-09-13T11:31:33.259Z,1.20
2017-09-13T11:34:00.722Z,1.20
2017-09-13T11:36:28.199Z,1.90
2017-09-13T11:38:55.781Z,1.50
2017-09-13T11:41:24.011Z,1.50
2017-09-13T11:43:51.466Z,1.33
2017-09-13T11:46:18.935Z,1.10
2017-09-13T11:48:47.256Z,1.80
2017-09-13T11:51:14.772Z,1.70
2017-09-13T11:53:42.244Z,1.83
2017-09-13T11:56:10.507Z,2.07
2017-09-13T11:58:37.978Z,1.90
2017-09-13T12:01:06.236Z,1.63
2017-09-13T12:03:33.719Z,2.07
2017-09-13T12:06:01.972Z,2.03
2017-09-13T12:08:29.531Z,1.97
2017-09-13T12:10:57.004Z,1.40
2017-09-13T12:13:25.249Z,1.20
2017-09-13T12:15:52.728Z,2.17
2017-09-13T12:18:20.280Z,2.33
2017-09-13T12:20:47.739Z,1.63
2017-09-13T12:23:15.213Z,1.67
2017-09-13T12:25:43.476Z,1.80
2017-09-13T12:28:10.944Z,1.63
2017-09-13T12:30:39.203Z,1.37
2017-09-13T12:33:06.674Z,2.00
2017-09-13T12:35:34.940Z,1.23
2017-09-13T12:38:03.177Z,1.67
2017-09-13T12:40:31.340Z,1.33
2017-09-13T12:42:58.840Z,1.63
2017-09-13T12:45:26.383Z,1.50
2017-09-13T12:47:53.888Z,1.53
2017-09-13T12:50:21.338Z,1.03
2017-09-13T12:52:48.803Z,1.40
2017-09-13T12:55:16.279Z,1.87
2017-09-13T12:57:43.754Z,1.60
2017-09-13T13:00:11.244Z,1.30
2017-09-13T13:02:39.472Z,1.67
2017-09-13T13:05:06.926Z,1.63
2017-09-13T13:07:34.399Z,1.63
2017-09-13T13:10:01.859Z,1.23
2017-09-13T13:12:29.356Z,1.67
2017-09-13T13:14:57.592Z,1.60
2017-09-13T13:17:25.056Z,1.67
2017-09-13T13:19:52.511Z,1.80
2017-09-13T13:22:20.085Z,3.30
2017-09-13T13:24:47.644Z,2.07
2017-09-13T13:27:15.192Z,1.90
2017-09-13T13:29:42.665Z,1.70
2017-09-13T13:32:10.892Z,2.43
2017-09-13T13:34:38.400Z,1.70
2017-09-13T13:37:05.950Z,1.60
2017-09-13T13:39:33.410Z,1.80
2017-09-13T13:42:00.876Z,1.80
2017-09-13T13:44:29.120Z,1.43
2017-09-13T13:46:56.575Z,1.10
2017-09-13T13:49:24.039Z,1.67
2017-09-13T13:51:51.504Z,1.80
2017-09-13T13:54:19.055Z,1.30
2017-09-13T13:56:46.523Z,1.97
2017-09-13T13:59:14.752Z,0.80
2017-09-13T14:01:42.216Z,0.97
2017-09-13T14:04:09.680Z,1.57
2017-09-13T14:06:37.146Z,1.83
2017-09-13T14:09:04.615Z,1.33
2017-09-13T14:11:32.875Z,1.60
2017-09-13T14:14:00.343Z,1.97
2017-09-13T14:16:27.804Z,1.83
2017-09-13T14:18:55.263Z,1.80
2017-09-13T14:21:22.791Z,1.33
2017-09-13T14:23:50.248Z,1.57
2017-09-13T14:26:17.716Z,1.23
2017-09-13T14:28:45.192Z,1.30
2017-09-13T14:31:13.604Z,1.27
2017-09-13T14:33:41.827Z,1.50
2017-09-13T14:36:09.406Z,1.50
2017-09-13T14:38:36.863Z,1.30
2017-09-13T14:41:04.327Z,1.10
2017-09-13T14:43:32.628Z,1.43
2017-09-13T14:46:00.157Z,1.20
2017-09-13T14:48:27.633Z,1.20
2017-09-13T14:50:55.889Z,1.10
2017-09-13T14:53:23.345Z,1.30
2017-09-13T14:55:50.811Z,1.43
2017-09-13T14:58:19.086Z,1.30
2017-09-13T15:00:46.555Z,1.10
2017-09-13T15:03:14.776Z,1.27
2017-09-13T15:05:42.244Z,1.40
2017-09-13T15:08:09.718Z,1.40
2017-09-13T15:10:37.293Z,1.57
2017-09-13T15:13:05.532Z,1.20
2017-09-13T15:15:32.987Z,1.20
2017-09-13T15:18:00.469Z,1.60
2017-09-13T15:20:27.943Z,1.07
2017-09-13T15:22:56.192Z,1.43
2017-09-13T15:25:23.654Z,1.60
2017-09-13T15:27:51.217Z,1.30
2017-09-13T15:30:18.676Z,1.50
2017-09-13T15:32:46.143Z,1.50
2017-09-13T15:35:14.381Z,2.20
2017-09-13T15:37:41.861Z,1.67
2017-09-13T15:40:09.416Z,1.40
2017-09-13T15:42:36.895Z,1.83
2017-09-13T15:45:05.120Z,1.50
2017-09-13T15:47:33.212Z,1.37
2017-09-13T15:50:01.464Z,1.30
2017-09-13T15:52:28.946Z,1.70
2017-09-13T15:54:56.400Z,1.13
2017-09-13T15:57:23.888Z,1.87
2017-09-13T15:59:52.162Z,1.53
2017-09-13T16:02:20.392Z,1.87
2017-09-13T16:04:47.883Z,1.07
2017-09-13T16:07:16.298Z,1.77
2017-09-13T16:09:43.764Z,2.10
2017-09-13T16:12:11.244Z,1.30
2017-09-13T16:14:38.699Z,1.70
2017-09-13T16:17:06.183Z,1.30
2017-09-13T16:19:33.811Z,1.60
2017-09-13T16:22:01.269Z,1.60
2017-09-13T16:24:28.732Z,1.67
2017-09-13T16:26:56.268Z,1.10
2017-09-13T16:29:23.723Z,1.23
2017-09-13T16:31:51.183Z,1.37
2017-09-13T16:34:18.656Z,1.63
2017-09-13T16:36:46.111Z,1.77
2017-09-13T16:39:13.595Z,1.30
2017-09-13T16:41:41.247Z,1.30
2017-09-13T16:44:08.703Z,2.17
2017-09-13T16:46:36.164Z,1.67
2017-09-13T16:49:03.635Z,1.47
2017-09-13T16:51:31.851Z,1.40
2017-09-13T16:53:59.316Z,2.03
2017-09-13T16:56:26.796Z,2.43
2017-09-13T16:58:54.247Z,2.20
2017-09-13T17:01:22.387Z,1.83
2017-09-13T17:03:49.861Z,2.30
2017-09-13T17:06:17.352Z,2.47
2017-09-13T17:08:44.811Z,2.43
2017-09-13T17:11:13.466Z,2.70
2017-09-13T17:13:40.943Z,2.03
2017-09-13T17:16:08.444Z,1.60
2017-09-13T17:18:35.923Z,2.50
2017-09-13T17:21:03.419Z,2.20
2017-09-13T17:23:30.996Z,2.23
2017-09-13T17:25:59.235Z,2.97
2017-09-13T17:28:26.712Z,3.00
2017-09-13T17:30:54.184Z,1.90
2017-09-13T17:33:22.434Z,2.27
2017-09-13T17:35:49.884Z,1.93
2017-09-13T17:38:18.160Z,1.73
2017-09-13T17:40:45.639Z,1.33
2017-09-13T17:43:13.151Z,1.60
2017-09-13T17:45:40.652Z,1.70
2017-09-13T17:48:08.222Z,1.47
2017-09-13T17:50:36.467Z,1.73
2017-09-13T17:53:03.929Z,1.23
2017-09-13T17:55:31.504Z,1.60
2017-09-13T17:57:59.084Z,1.63
2017-09-13T18:00:27.391Z,1.40
2017-09-13T18:02:54.907Z,1.80
2017-09-13T18:05:23.143Z,1.90
2017-09-13T18:07:50.684Z,1.80
2017-09-13T18:10:18.159Z,1.93
2017-09-13T18:12:45.636Z,2.23
2017-09-13T18:15:14.044Z,1.77
2017-09-13T18:17:41.590Z,3.53
2017-09-13T18:20:09.820Z,1.73
2017-09-13T18:22:38.138Z,2.20
2017-09-13T18:25:06.514Z,2.43
2017-09-13T18:27:35.505Z,1.60
2017-09-13T18:30:02.964Z,2.17
2017-09-13T18:32:30.523Z,1.83
2017-09-13T18:34:58.047Z,2.20
2017-09-13T18:37:25.570Z,2.37
2017-09-13T18:39:54.208Z,1.80
2017-09-13T18:42:21.717Z,2.87
2017-09-13T18:44:49.190Z,2.17
2017-09-13T18:47:16.699Z,1.60
2017-09-13T18:49:44.945Z,2.73
2017-09-13T18:52:12.413Z,1.60
2017-09-13T18:54:40.683Z,2.33
2017-09-13T18:57:08.185Z,3.27
2017-09-13T18:59:36.513Z,2.90
2017-09-13T19:02:04.036Z,1.80
2017-09-13T19:04:31.541Z,1.73
2017-09-13T19:06:59.013Z,2.50
2017-09-13T19:09:26.567Z,2.23
2017-09-13T19:11:55.110Z,2.00
2017-09-13T19:14:22.623Z,2.50
2017-09-13T19:16:50.851Z,1.77
2017-09-13T19:19:18.335Z,1.90
2017-09-13T19:21:45.802Z,2.33
2017-09-13T19:24:14.040Z,2.00
2017-09-13T19:26:41.503Z,3.50
2017-09-13T19:29:09.028Z,2.33
2017-09-13T19:31:36.524Z,2.60
2017-09-13T19:34:03.988Z,2.20
2017-09-13T19:36:31.484Z,2.23
2017-09-13T19:38:59.059Z,2.27
2017-09-13T19:41:26.523Z,2.47
2017-09-13T19:43:54.708Z,2.30
2017-09-13T19:46:22.187Z,2.87
2017-09-13T19:48:49.646Z,2.50
2017-09-13T19:51:17.107Z,2.17
2017-09-13T19:53:44.628Z,2.00
2017-09-13T19:56:12.124Z,2.17
2017-09-13T19:58:40.369Z,2.70
2017-09-13T20:01:07.946Z,2.70
2017-09-13T20:03:35.400Z,2.00
2017-09-13T20:06:02.873Z,3.17
2017-09-13T20:08:30.652Z,2.00
2017-09-13T20:10:58.899Z,2.53
2017-09-13T20:13:26.355Z,2.43
2017-09-13T20:15:55.335Z,2.40
2017-09-13T20:18:22.808Z,2.30
2017-09-13T20:20:50.267Z,2.13
2017-09-13T20:23:17.735Z,2.17
2017-09-13T20:25:45.967Z,2.43
2017-09-13T20:28:13.489Z,4.10
2017-09-13T20:30:41.787Z,2.00
2017-09-13T20:33:09.251Z,2.20
2017-09-13T20:35:37.563Z,1.73
2017-09-13T20:38:05.049Z,2.60
2017-09-13T20:40:33.267Z,2.60
2017-09-13T20:43:00.752Z,2.00
2017-09-13T20:45:29.005Z,1.83
2017-09-13T20:47:56.471Z,2.00
2017-09-13T20:50:23.980Z,2.03
2017-09-13T20:52:51.504Z,1.93
2017-09-13T20:55:18.959Z,1.50
2017-09-13T20:57:46.408Z,1.90
2017-09-13T21:00:13.983Z,1.67
2017-09-13T21:02:41.535Z,1.70
2017-09-13T21:05:09.092Z,2.20
2017-09-13T21:07:36.552Z,1.67
2017-09-13T21:10:04.786Z,2.17
2017-09-13T21:12:32.241Z,1.73
2017-09-13T21:14:59.702Z,1.90
2017-09-13T21:17:27.174Z,1.80
2017-09-13T21:19:54.631Z,1.67
2017-09-13T21:22:22.884Z,1.60
2017-09-13T21:24:50.386Z,1.53
2017-09-13T21:27:17.843Z,1.60
2017-09-13T21:29:45.409Z,1.60
2017-09-13T21:32:12.888Z,1.23
2017-09-13T21:34:40.431Z,1.33
2017-09-13T21:37:08.692Z,1.60
2017-09-13T21:39:37.010Z,1.70
2017-09-13T21:42:05.116Z,1.50
2017-09-13T21:44:33.599Z,1.67
2017-09-13T21:47:01.071Z,1.30
2017-09-13T21:49:28.537Z,1.63
2017-09-13T21:51:56.796Z,1.83
2017-09-13T21:54:24.239Z,2.00
2017-09-13T21:56:51.699Z,1.60
2017-09-13T21:59:19.407Z,1.90
2017-09-13T22:01:47.635Z,1.83
2017-09-13T22:04:15.092Z,1.80
2017-09-13T22:06:42.560Z,1.80
2017-09-13T22:09:11.561Z,2.37
2017-09-13T22:11:39.020Z,1.63
2017-09-13T22:14:06.572Z,2.93
2017-09-13T22:16:34.055Z,3.00
2017-09-13T22:19:02.316Z,2.47
2017-09-13T22:21:29.835Z,3.23
2017-09-13T22:23:57.328Z,2.50
2017-09-13T22:26:24.780Z,2.13
2017-09-13T22:28:52.348Z,2.47
2017-09-13T22:31:20.576Z,3.10
2017-09-13T22:33:48.068Z,3.53
2017-09-13T22:36:15.554Z,3.43
2017-09-13T22:38:43.799Z,2.90
2017-09-13T22:41:11.255Z,2.40
2017-09-13T22:43:38.735Z,2.73
2017-09-13T22:46:06.961Z,2.40
2017-09-13T22:48:34.420Z,1.90
2017-09-13T22:51:01.908Z,2.53
2017-09-13T22:53:29.460Z,2.10
2017-09-13T22:55:56.911Z,1.87
2017-09-13T22:58:24.375Z,2.00
2017-09-13T23:00:51.840Z,2.57
2017-09-13T23:03:19.388Z,1.73
2017-09-13T23:05:46.944Z,1.90
2017-09-13T23:08:14.401Z,1.80
2017-09-13T23:10:41.963Z,2.23
2017-09-13T23:13:09.432Z,1.70
2017-09-13T23:15:36.914Z,2.53
2017-09-13T23:18:04.366Z,2.13
2017-09-13T23:20:32.626Z,2.60
2017-09-13T23:23:00.851Z,1.67
2017-09-13T23:25:28.347Z,1.83
2017-09-13T23:27:55.821Z,1.80
2017-09-13T23:30:24.059Z,1.77
2017-09-13T23:32:51.516Z,1.80
2017-09-13T23:35:19.083Z,2.13
2017-09-13T23:37:46.538Z,2.17
2017-09-13T23:40:14.008Z,1.67
2017-09-13T23:42:41.547Z,1.60
2017-09-13T23:45:09.008Z,1.50
2017-09-13T23:47:36.468Z,1.50
2017-09-13T23:50:03.949Z,1.60
2017-09-13T23:52:32.207Z,1.70
2017-09-13T23:54:59.659Z,2.00
2017-09-13T23:57:27.127Z,1.57
2017-09-13T23:59:55.397Z,1.37
